Time;durP1;ratioP1;P1;durP2;ratioP2;P2;SDS_P1;SDS_P2;PMS_P1;PMS_P2;Temp;Humidity;BMP_temperature;BMP_pressure;BME280_temperature;BME280_humidity;BME280_pressure;Samples;Min_cycle;Max_cycle;Signal;HPM_P1;HPM_P2
2021/10/21 00:02:20;;;;;;;8.38;2.13;;;;;;;11.90;100.00;98836.16;5072983;28;20029;-61
2021/10/21 00:04:46;;;;;;;5.40;2.72;;;;;;;11.83;100.00;98805.81;5072153;28;20056;-61
2021/10/21 00:07:11;;;;;;;3.88;1.95;;;;;;;11.80;100.00;98750.38;5074501;28;20495;-60
2021/10/21 00:09:36;;;;;;;3.63;1.83;;;;;;;11.80;100.00;98743.28;5074609;28;20366;-60
2021/10/21 00:12:03;;;;;;;5.22;1.90;;;;;;;11.77;100.00;98732.91;5075005;28;20038;-60
2021/10/21 00:14:30;;;;;;;5.60;1.80;;;;;;;11.74;100.00;98732.31;5063850;28;20031;-60
2021/10/21 00:16:55;;;;;;;8.55;1.80;;;;;;;11.71;100.00;98738.72;5070876;28;20028;-60
2021/10/21 00:19:20;;;;;;;3.00;1.45;;;;;;;11.64;100.00;98737.56;5074702;28;20540;-61
2021/10/21 00:21:48;;;;;;;6.88;1.52;;;;;;;11.55;100.00;98757.72;5074675;28;20111;-61
2021/10/21 00:24:14;;;;;;;4.65;1.75;;;;;;;11.45;100.00;98751.50;5072389;28;20077;-61
2021/10/21 00:26:39;;;;;;;5.85;1.38;;;;;;;11.37;100.00;98760.06;5072572;28;20028;-60
2021/10/21 00:29:05;;;;;;;5.57;1.67;;;;;;;11.34;100.00;98752.34;5074360;28;20044;-61
2021/10/21 00:31:30;;;;;;;5.18;1.65;;;;;;;11.32;100.00;98752.47;5074508;28;20175;-60
2021/10/21 00:33:55;;;;;;;4.10;1.40;;;;;;;11.34;100.00;98812.47;5074670;28;20103;-60
2021/10/21 00:36:21;;;;;;;3.70;1.63;;;;;;;11.31;100.00;98777.28;5070281;28;20534;-60
2021/10/21 00:38:46;;;;;;;4.45;1.30;;;;;;;11.25;100.00;98769.88;5072362;28;20029;-60
2021/10/21 00:41:11;;;;;;;4.95;1.75;;;;;;;11.17;100.00;98763.50;5074030;28;20025;-59
2021/10/21 00:43:38;;;;;;;3.33;1.40;;;;;;;11.06;100.00;98765.22;5074333;28;20060;-60
2021/10/21 00:46:06;;;;;;;6.45;1.80;;;;;;;11.00;100.00;98765.69;5073343;28;20023;-59
2021/10/21 00:48:32;;;;;;;8.55;1.80;;;;;;;10.95;100.00;98718.38;5073583;28;20067;-60
2021/10/21 00:50:58;;;;;;;5.32;1.20;;;;;;;10.93;100.00;98732.72;5072137;28;20040;-60
2021/10/21 00:53:23;;;;;;;7.90;1.60;;;;;;;10.88;100.00;98735.75;5074093;28;20029;-60
2021/10/21 00:55:48;;;;;;;7.25;1.30;;;;;;;10.87;100.00;98714.66;5073744;28;20028;-60
2021/10/21 00:58:14;;;;;;;7.65;1.90;;;;;;;10.83;100.00;98714.06;5072546;28;20051;-60
2021/10/21 01:00:40;;;;;;;10.63;1.75;;;;;;;10.80;100.00;98719.63;5071856;28;20503;-59
2021/10/21 01:03:05;;;;;;;4.85;1.35;;;;;;;10.79;100.00;98729.38;5074251;28;20083;-61
2021/10/21 01:05:30;;;;;;;9.98;1.67;;;;;;;10.77;99.64;98739.22;5073639;28;20108;-60
2021/10/21 01:07:56;;;;;;;11.82;1.65;;;;;;;10.74;98.63;98744.78;5072103;28;20039;-59
2021/10/21 01:10:21;;;;;;;8.98;1.60;;;;;;;10.74;96.41;98722.75;5073238;28;20115;-59
2021/10/21 01:12:47;;;;;;;8.80;2.50;;;;;;;10.71;95.47;98731.78;5068608;28;20021;-59
2021/10/21 01:15:18;;;;;;;7.07;1.63;;;;;;;10.69;93.48;98743.44;5052789;28;20424;-59
2021/10/21 01:17:43;;;;;;;11.30;2.33;;;;;;;10.65;92.75;98737.53;5053827;28;20029;-69
2021/10/21 01:20:11;;;;;;;7.70;1.50;;;;;;;10.66;92.18;98726.00;5054368;28;20025;-60
2021/10/21 01:22:37;;;;;;;10.15;1.90;;;;;;;10.68;92.35;98702.06;5053778;28;20056;-59
2021/10/21 01:25:03;;;;;;;9.48;1.73;;;;;;;10.65;92.36;98717.22;5054333;28;20036;-59
2021/10/21 01:27:29;;;;;;;9.75;1.52;;;;;;;10.71;91.72;98718.53;5053945;28;20024;-59
2021/10/21 01:29:54;;;;;;;10.07;1.70;;;;;;;10.70;91.79;98723.97;5053956;28;20076;-59
2021/10/21 01:32:23;;;;;;;9.65;1.80;;;;;;;10.76;91.26;98726.94;5053400;28;20120;-59
2021/10/21 01:34:49;;;;;;;6.53;1.25;;;;;;;10.79;91.35;98736.47;5072910;28;20025;-60
2021/10/21 01:37:14;;;;;;;7.38;1.50;;;;;;;10.85;90.62;98724.56;5073285;28;20028;-66
2021/10/21 01:39:39;;;;;;;7.13;1.35;;;;;;;10.90;89.55;98728.50;5072545;28;20024;-59
2021/10/21 01:42:05;;;;;;;8.98;1.65;;;;;;;10.90;90.10;98709.97;5072937;28;20116;-60
2021/10/21 01:44:30;;;;;;;9.75;1.60;;;;;;;10.91;89.68;98734.66;5072968;28;20024;-59
2021/10/21 01:46:56;;;;;;;4.88;1.30;;;;;;;10.91;89.37;98711.66;5072972;28;20032;-59
2021/10/21 01:49:21;;;;;;;9.13;1.77;;;;;;;10.91;89.34;98718.78;5072221;28;20078;-51
2021/10/21 01:51:48;;;;;;;5.68;1.25;;;;;;;10.85;88.94;98706.00;5072678;28;20034;-59
2021/10/21 01:54:13;;;;;;;7.00;1.40;;;;;;;10.81;90.37;98721.31;5073230;28;20039;-60
2021/10/21 01:56:39;;;;;;;10.75;1.48;;;;;;;10.76;90.61;98723.47;5072924;28;20017;-59
2021/10/21 01:59:04;;;;;;;3.88;1.10;;;;;;;10.69;91.62;98707.25;5072279;28;20071;-59
2021/10/21 02:01:29;;;;;;;6.50;1.40;;;;;;;10.57;92.26;98714.34;5072535;28;20143;-59
2021/10/21 02:03:55;;;;;;;11.23;1.58;;;;;;;10.51;93.24;98708.69;5072853;28;20059;-63
2021/10/21 02:06:20;;;;;;;6.18;1.40;;;;;;;10.42;93.98;98700.53;5072954;28;20465;-59
2021/10/21 02:08:45;;;;;;;3.63;1.15;;;;;;;10.36;94.52;98721.31;5072856;28;20052;-68
2021/10/21 02:11:11;;;;;;;7.60;1.40;;;;;;;10.29;95.03;98662.72;5072343;28;20528;-59
2021/10/21 02:13:36;;;;;;;5.43;1.65;;;;;;;10.25;95.11;98690.38;5072237;28;20036;-59
2021/10/21 02:16:02;;;;;;;7.88;1.40;;;;;;;10.19;95.74;98688.22;5072704;28;20432;-59
2021/10/21 02:18:28;;;;;;;6.35;1.40;;;;;;;10.15;95.22;98684.94;5072854;28;20085;-59
2021/10/21 02:20:53;;;;;;;5.55;1.25;;;;;;;10.12;95.99;98671.97;5072566;28;20025;-59
2021/10/21 02:23:19;;;;;;;5.72;1.05;;;;;;;10.10;96.54;98663.31;5072548;28;20032;-59
2021/10/21 02:25:44;;;;;;;8.73;1.33;;;;;;;10.08;97.12;98671.38;5072267;28;20021;-59
2021/10/21 02:28:10;;;;;;;10.23;1.45;;;;;;;10.06;97.33;98670.63;5072388;28;20391;-59
2021/10/21 02:30:35;;;;;;;6.72;1.25;;;;;;;10.08;97.61;98662.63;5072241;28;20052;-58
2021/10/21 02:33:00;;;;;;;8.75;1.63;;;;;;;10.08;97.11;98663.44;5071720;28;20029;-59
2021/10/21 02:35:25;;;;;;;7.00;1.10;;;;;;;10.10;97.62;98661.53;5072584;28;20032;-59
2021/10/21 02:37:51;;;;;;;6.88;1.60;;;;;;;10.12;97.86;98671.97;5072601;28;20025;-59
2021/10/21 02:40:16;;;;;;;9.43;2.08;;;;;;;10.13;97.64;98657.81;5072323;28;20437;-59
2021/10/21 02:42:41;;;;;;;7.43;1.60;;;;;;;10.12;97.72;98653.47;5072153;28;20028;-59
2021/10/21 02:45:08;;;;;;;8.73;1.38;;;;;;;10.11;98.11;98646.50;5071821;28;20029;-58
2021/10/21 02:47:34;;;;;;;5.85;1.27;;;;;;;10.10;98.29;98639.50;5072334;28;20020;-53
2021/10/21 02:49:59;;;;;;;5.90;1.30;;;;;;;10.12;98.53;98656.13;5072074;28;20086;-58
2021/10/21 02:52:25;;;;;;;5.00;1.30;;;;;;;10.12;98.81;98646.38;5072033;28;20040;-59
2021/10/21 02:54:50;;;;;;;10.13;1.63;;;;;;;10.13;98.49;98640.13;5071809;28;20020;-59
2021/10/21 02:57:15;;;;;;;7.97;1.50;;;;;;;10.19;98.92;98651.19;5072458;28;20162;-59
2021/10/21 02:59:41;;;;;;;6.80;1.92;;;;;;;10.25;98.09;98643.59;5071473;28;20109;-59
2021/10/21 03:02:06;;;;;;;5.75;1.70;;;;;;;10.25;97.78;98640.94;5072342;28;20498;-59
2021/10/21 03:04:32;;;;;;;6.35;1.63;;;;;;;10.28;98.06;98639.88;5072132;28;20032;-59
2021/10/21 03:06:57;;;;;;;8.50;1.70;;;;;;;10.28;97.89;98637.22;5071882;28;20029;-59
2021/10/21 03:09:22;;;;;;;8.50;1.90;;;;;;;10.28;98.34;98639.88;5071703;28;20024;-59
2021/10/21 03:11:47;;;;;;;6.47;1.77;;;;;;;10.34;98.41;98652.63;5071990;28;20021;-59
2021/10/21 03:14:13;;;;;;;5.35;1.70;;;;;;;10.35;98.03;98645.53;5072211;28;20016;-59
2021/10/21 03:16:39;;;;;;;7.40;1.83;;;;;;;10.37;98.21;98640.97;5071420;28;20031;-59
2021/10/21 03:19:05;;;;;;;5.95;1.67;;;;;;;10.42;97.85;98639.66;5072036;28;20021;-59
2021/10/21 03:21:31;;;;;;;8.65;2.30;;;;;;;10.44;97.71;98634.25;5071600;28;20040;-59
2021/10/21 03:23:57;;;;;;;3.92;1.35;;;;;;;10.46;97.74;98645.53;5072048;28;20029;-58
2021/10/21 03:26:23;;;;;;;3.83;1.42;;;;;;;10.49;97.41;98640.00;5071424;28;20027;-57
2021/10/21 03:28:50;;;;;;;6.07;1.63;;;;;;;10.53;96.97;98638.78;5072015;28;20024;-59
2021/10/21 03:31:15;;;;;;;8.05;1.80;;;;;;;10.58;96.70;98630.50;5071561;28;20043;-59
2021/10/21 03:33:41;;;;;;;5.72;1.65;;;;;;;10.63;96.05;98637.09;5071847;28;20376;-60
2021/10/21 03:36:06;;;;;;;4.93;1.40;;;;;;;10.66;95.87;98643.94;5072132;28;20028;-59
2021/10/21 03:38:32;;;;;;;6.72;1.30;;;;;;;10.63;96.56;98650.31;5072826;28;20386;-59
2021/10/21 03:40:57;;;;;;;6.10;1.30;;;;;;;10.62;96.83;98642.50;5075226;28;20036;-60
2021/10/21 03:43:23;;;;;;;9.00;1.50;;;;;;;10.60;97.21;98645.28;5075134;28;20060;-66
2021/10/21 03:45:49;;;;;;;9.43;1.50;;;;;;;10.57;97.38;98650.00;5075253;28;20122;-60
2021/10/21 03:48:14;;;;;;;6.72;1.35;;;;;;;10.53;98.11;98657.31;5075004;28;20032;-59
2021/10/21 03:50:39;;;;;;;6.43;1.50;;;;;;;10.48;98.58;98654.19;5075198;28;20028;-59
2021/10/21 03:53:09;;;;;;;5.07;1.42;;;;;;;10.47;98.69;98663.09;5074923;28;20031;-59
2021/10/21 03:55:36;;;;;;;5.50;1.45;;;;;;;10.47;99.25;98663.09;5075286;28;20063;-59
2021/10/21 03:58:01;;;;;;;8.05;1.35;;;;;;;10.46;99.46;98674.63;5074972;28;20103;-57
2021/10/21 04:00:26;;;;;;;7.45;1.50;;;;;;;10.46;99.57;98693.16;5074929;28;20037;-58
2021/10/21 04:02:52;;;;;;;9.40;2.03;;;;;;;10.46;99.74;98694.03;5074534;28;20468;-64
2021/10/21 04:05:18;;;;;;;4.85;2.00;;;;;;;10.47;99.83;98701.00;5074716;28;20384;-60
2021/10/21 04:07:44;;;;;;;11.30;2.33;;;;;;;10.45;99.82;98716.16;5075056;28;20051;-59
2021/10/21 04:10:09;;;;;;;14.48;2.42;;;;;;;10.41;100.00;98795.88;5074770;28;20472;-59
2021/10/21 04:12:35;;;;;;;6.70;2.40;;;;;;;10.32;100.00;98813.28;5074844;28;20494;-59
2021/10/21 04:15:00;;;;;;;8.57;1.63;;;;;;;10.16;99.39;98792.44;5074469;28;20021;-59
2021/10/21 04:17:26;;;;;;;9.32;1.45;;;;;;;10.11;99.46;98778.72;5074464;28;20032;-59
2021/10/21 04:19:51;;;;;;;12.00;1.38;;;;;;;10.02;97.81;98782.06;5074584;28;20081;-59
2021/10/21 04:22:16;;;;;;;12.82;1.63;;;;;;;9.92;97.93;98809.19;5074542;28;20384;-59
2021/10/21 04:24:42;;;;;;;10.85;1.60;;;;;;;9.88;97.49;98826.22;5074181;28;20032;-59
2021/10/21 04:27:07;;;;;;;9.55;1.80;;;;;;;9.81;97.76;98833.78;5074922;28;20059;-59
2021/10/21 04:29:32;;;;;;;7.53;0.93;;;;;;;9.77;97.68;98863.19;5074310;28;20067;-59
2021/10/21 04:31:58;;;;;;;7.50;0.90;;;;;;;9.78;95.44;98901.88;5073844;28;20033;-60
2021/10/21 04:34:23;;;;;;;5.88;1.08;;;;;;;9.79;95.28;98925.56;5074377;28;20020;-60
2021/10/21 04:36:50;;;;;;;8.43;1.00;;;;;;;9.78;96.07;98942.41;5073748;28;20384;-59
2021/10/21 04:39:15;;;;;;;8.93;1.33;;;;;;;9.79;96.57;98967.84;5074162;28;20031;-65
2021/10/21 04:41:41;;;;;;;8.80;1.52;;;;;;;9.78;97.87;98999.69;5073922;28;20096;-66
2021/10/21 04:44:06;;;;;;;4.60;1.10;;;;;;;9.72;96.75;99001.00;5074195;28;20025;-59
2021/10/21 04:46:31;;;;;;;9.85;1.20;;;;;;;9.63;96.01;99033.31;5074072;28;20107;-62
2021/10/21 04:48:57;;;;;;;11.80;1.73;;;;;;;9.54;96.62;99047.19;5073820;28;20431;-61
2021/10/21 04:51:22;;;;;;;8.93;1.40;;;;;;;9.56;96.71;99085.75;5073688;28;20465;-58
2021/10/21 04:53:47;;;;;;;11.73;1.90;;;;;;;9.56;97.29;99096.34;5073464;28;20027;-59
2021/10/21 04:56:13;;;;;;;9.82;1.85;;;;;;;9.62;97.08;99129.44;5073674;28;20032;-63
2021/10/21 04:58:38;;;;;;;15.48;2.45;;;;;;;9.62;97.11;99138.19;5073923;28;20537;-59
2021/10/21 05:01:03;;;;;;;17.20;2.95;;;;;;;9.62;97.75;99158.50;5073598;28;20020;-59
2021/10/21 05:03:29;;;;;;;17.75;3.03;;;;;;;9.64;97.82;99173.31;5073238;28;20072;-58
2021/10/21 05:05:54;;;;;;;15.00;3.92;;;;;;;9.65;96.36;99198.81;5073694;28;20354;-59
2021/10/21 05:08:19;;;;;;;9.73;2.33;;;;;;;9.72;93.43;99208.94;5073656;28;20107;-59
2021/10/21 05:10:45;;;;;;;16.48;2.15;;;;;;;9.76;91.74;99224.50;5055158;28;20059;-65
2021/10/21 05:13:12;;;;;;;11.52;3.03;;;;;;;9.76;91.67;99227.13;5073176;28;20024;-58
2021/10/21 05:15:37;;;;;;;14.90;3.28;;;;;;;9.76;91.88;99253.56;5073659;28;20741;-56
2021/10/21 05:18:02;;;;;;;13.35;2.22;;;;;;;9.76;92.19;99261.50;5073369;28;20567;-63
2021/10/21 05:20:28;;;;;;;15.07;2.13;;;;;;;9.78;91.82;99286.06;5073133;28;20043;-59
2021/10/21 05:22:53;;;;;;;12.73;2.30;;;;;;;9.75;92.22;99299.47;5073146;28;20354;-59
2021/10/21 05:25:18;;;;;;;12.70;2.00;;;;;;;9.78;91.31;99315.13;5072734;28;20530;-65
2021/10/21 05:27:44;;;;;;;14.07;2.80;;;;;;;9.77;92.10;99318.72;5073285;28;20112;-60
2021/10/21 05:30:10;;;;;;;13.88;2.75;;;;;;;9.78;92.18;99333.63;5073150;28;20408;-59
2021/10/21 05:32:36;;;;;;;15.27;2.75;;;;;;;9.80;92.45;99337.00;5072978;28;20029;-59
2021/10/21 05:35:01;;;;;;;10.75;2.50;;;;;;;9.80;92.82;99352.03;5072603;28;20113;-59
2021/10/21 05:37:26;;;;;;;14.55;2.50;;;;;;;9.82;92.91;99369.50;5073341;28;20065;-61
2021/10/21 05:39:54;;;;;;;12.13;2.40;;;;;;;9.86;93.12;99387.78;5073038;28;20047;-59
2021/10/21 05:42:19;;;;;;;10.57;2.20;;;;;;;10.01;91.59;99400.00;5072719;28;20384;-59
2021/10/21 05:44:45;;;;;;;14.18;2.53;;;;;;;10.13;89.97;99404.50;5072587;28;20027;-59
2021/10/21 05:47:10;;;;;;;22.10;4.25;;;;;;;10.25;89.51;99418.69;5072756;28;20032;-64
2021/10/21 05:49:35;;;;;;;15.60;2.30;;;;;;;10.33;88.40;99434.94;5072538;28;20024;-58
2021/10/21 05:52:01;;;;;;;10.60;2.42;;;;;;;10.43;87.22;99445.75;5072729;28;20035;-59
2021/10/21 05:54:26;;;;;;;14.07;2.40;;;;;;;10.53;85.12;99474.28;5072023;28;20028;-59
2021/10/21 05:56:52;;;;;;;10.27;2.28;;;;;;;10.59;83.92;99490.59;5072410;28;20436;-60
2021/10/21 05:59:17;;;;;;;9.27;2.35;;;;;;;10.60;82.58;99479.06;5072798;28;20480;-59
2021/10/21 06:01:43;;;;;;;14.07;2.05;;;;;;;10.65;80.64;99516.66;5072012;28;20103;-59
2021/10/21 06:04:08;;;;;;;11.80;2.05;;;;;;;10.63;78.66;99530.97;5072350;28;20106;-59
2021/10/21 06:06:37;;;;;;;11.60;2.08;;;;;;;10.63;77.31;99518.56;5071720;28;20040;-60
2021/10/21 06:09:03;;;;;;;13.32;2.47;;;;;;;10.62;76.60;99538.03;5072388;28;20108;-60
2021/10/21 06:11:29;;;;;;;9.38;2.38;;;;;;;10.61;77.23;99543.44;5072364;28;20024;-59
2021/10/21 06:13:55;;;;;;;8.43;2.00;;;;;;;10.61;76.11;99533.72;5072115;28;20016;-64
2021/10/21 06:16:20;;;;;;;15.80;2.15;;;;;;;10.60;75.61;99549.69;5072165;28;20024;-60
2021/10/21 06:18:45;;;;;;;8.27;2.30;;;;;;;10.58;76.00;99554.25;5072313;28;20024;-60
2021/10/21 06:21:12;;;;;;;9.85;2.28;;;;;;;10.58;76.45;99551.59;5072328;28;20025;-65
2021/10/21 06:23:37;;;;;;;7.30;1.83;;;;;;;10.63;75.31;99574.16;5072216;28;20024;-60
2021/10/21 06:26:03;;;;;;;12.18;1.98;;;;;;;10.74;76.39;99612.31;5071708;28;20037;-58
2021/10/21 06:28:29;;;;;;;10.50;2.00;;;;;;;10.52;82.32;99626.94;5071836;28;20040;-62
2021/10/21 06:30:55;;;;;;;15.00;2.90;;;;;;;9.97;87.26;99633.88;5069218;28;20051;-59
2021/10/21 06:33:21;;;;;;;13.68;2.88;;;;;;;9.72;90.87;99631.88;5075296;28;20469;-60
2021/10/21 06:35:46;;;;;;;13.27;2.53;;;;;;;9.62;93.64;99650.94;5071967;28;20042;-59
2021/10/21 06:38:14;;;;;;;13.88;3.13;;;;;;;9.60;93.85;99660.75;5071771;28;20381;-59
2021/10/21 06:40:40;;;;;;;16.55;3.20;;;;;;;9.62;93.85;99676.53;5083325;28;20495;-60
2021/10/21 06:43:05;;;;;;;18.00;3.83;;;;;;;9.67;93.43;99672.66;5092126;28;20040;-58
2021/10/21 06:45:32;;;;;;;21.00;2.97;;;;;;;9.74;92.45;99686.34;5092539;28;20461;-59
2021/10/21 06:47:57;;;;;;;14.48;2.90;;;;;;;9.75;91.09;99703.09;5071719;28;20074;-57
2021/10/21 06:50:23;;;;;;;16.17;2.90;;;;;;;9.75;89.20;99668.72;5069963;28;20028;-58
2021/10/21 06:52:49;;;;;;;13.20;2.50;;;;;;;9.66;89.60;99723.81;5072049;28;20195;-59
2021/10/21 06:55:15;;;;;;;12.30;2.35;;;;;;;9.62;88.17;99734.69;5071591;28;20066;-58
2021/10/21 06:57:57;;;;;;;15.80;2.53;;;;;;;9.59;87.34;99721.63;5071369;28;20040;-63
2021/10/21 07:00:24;;;;;;;14.65;2.10;;;;;;;9.61;85.32;99754.97;5069894;28;20384;-56
2021/10/21 07:02:49;;;;;;;7.72;2.05;;;;;;;9.67;83.63;99782.84;5072428;28;20024;-57
2021/10/21 07:05:16;;;;;;;9.50;2.03;;;;;;;9.68;82.36;99785.41;5071861;28;20024;-59
2021/10/21 07:07:42;;;;;;;11.45;2.15;;;;;;;9.65;84.35;99779.44;5071923;28;20021;-64
2021/10/21 07:10:09;;;;;;;14.65;3.75;;;;;;;9.60;83.44;99800.84;5071373;28;20047;-58
2021/10/21 07:12:36;;;;;;;10.48;1.85;;;;;;;9.66;81.04;99816.34;5065426;28;21021;-56
2021/10/21 07:15:02;;;;;;;9.38;1.95;;;;;;;9.65;81.37;99814.66;5075884;28;20021;-59
2021/10/21 07:17:27;;;;;;;9.65;2.00;;;;;;;9.67;80.28;99833.91;5092108;28;20042;-52
2021/10/21 07:19:53;;;;;;;6.55;1.63;;;;;;;9.83;77.51;99839.19;5092508;28;20569;-58
2021/10/21 07:22:19;;;;;;;8.23;1.90;;;;;;;9.84;77.91;99830.28;5075374;28;20020;-55
2021/10/21 07:24:44;;;;;;;5.43;1.60;;;;;;;10.01;75.69;99833.75;5074630;28;20037;-56
2021/10/21 07:27:10;;;;;;;8.73;2.00;;;;;;;10.08;75.74;99853.63;5075874;28;20017;-59
2021/10/21 07:29:35;;;;;;;14.18;2.50;;;;;;;10.14;76.17;99881.50;5093030;28;20051;-59
2021/10/21 07:32:01;;;;;;;8.85;2.17;;;;;;;10.09;77.04;99876.50;5095922;28;20475;-64
2021/10/21 07:34:27;;;;;;;8.65;2.15;;;;;;;10.17;77.50;99874.22;5082427;28;20039;-59
2021/10/21 07:36:52;;;;;;;11.50;2.60;;;;;;;10.45;74.97;99883.22;5075668;28;20044;-59
2021/10/21 07:39:17;;;;;;;10.07;1.98;;;;;;;10.61;74.98;99880.53;5075339;28;20035;-59
2021/10/21 07:41:44;;;;;;;10.23;1.75;;;;;;;10.71;74.76;99901.97;5075386;28;20016;-60
2021/10/21 07:44:09;;;;;;;8.38;2.00;;;;;;;10.71;75.61;99917.03;5079018;28;20032;-57
2021/10/21 07:46:35;;;;;;;12.07;1.92;;;;;;;10.62;77.39;99918.44;5074781;28;20073;-59
2021/10/21 07:49:01;;;;;;;9.35;1.90;;;;;;;10.62;78.51;99936.97;5074368;28;20067;-66
2021/10/21 07:51:30;;;;;;;6.93;2.00;;;;;;;10.65;78.05;99928.81;5074335;28;20108;-60
2021/10/21 07:53:57;;;;;;;9.02;1.90;;;;;;;10.75;77.20;99934.44;5075223;28;20021;-62
2021/10/21 07:56:22;;;;;;;10.48;1.70;;;;;;;10.73;77.48;99946.91;5075316;28;20035;-60
2021/10/21 07:58:47;;;;;;;9.32;1.73;;;;;;;10.58;76.86;99951.31;5074707;28;20016;-59
2021/10/21 08:01:13;;;;;;;11.00;1.73;;;;;;;10.62;77.00;99960.78;5075192;28;20111;-60
2021/10/21 08:03:38;;;;;;;10.00;1.67;;;;;;;10.68;78.09;99965.72;5074393;28;20062;-65
2021/10/21 08:06:04;;;;;;;8.07;1.60;;;;;;;10.86;78.11;99970.84;5074858;28;20070;-60
2021/10/21 08:08:30;;;;;;;8.00;1.90;;;;;;;10.86;78.99;99995.56;5075290;28;20031;-64
2021/10/21 08:10:56;;;;;;;8.02;1.83;;;;;;;10.58;81.15;100006.94;5074344;28;20480;-60
2021/10/21 08:13:21;;;;;;;6.70;1.60;;;;;;;10.22;83.43;100000.97;5074780;28;20029;-64
2021/10/21 08:15:47;;;;;;;6.38;1.33;;;;;;;10.09;83.38;100011.41;5075068;28;20433;-59
2021/10/21 08:18:13;;;;;;;5.75;1.38;;;;;;;10.06;83.49;100003.63;5074601;28;20040;-64
2021/10/21 08:20:40;;;;;;;7.28;1.17;;;;;;;10.06;85.22;99998.31;5074084;28;20021;-57
2021/10/21 08:23:05;;;;;;;11.48;1.50;;;;;;;10.05;86.16;100017.81;5075134;28;20031;-58
2021/10/21 08:25:31;;;;;;;10.35;1.60;;;;;;;10.03;86.45;100022.31;5073974;28;20439;-66
2021/10/21 08:27:56;;;;;;;7.13;1.80;;;;;;;10.02;87.50;100020.59;5074713;28;20039;-65
2021/10/21 08:30:25;;;;;;;8.27;1.70;;;;;;;9.99;88.76;100034.00;5074479;28;20059;-60
2021/10/21 08:32:54;;;;;;;12.60;2.33;;;;;;;9.94;88.95;100030.78;5074602;28;20027;-65
2021/10/21 08:35:20;;;;;;;5.75;1.60;;;;;;;9.99;90.10;100034.00;5074667;28;20045;-65
2021/10/21 08:37:45;;;;;;;9.55;1.83;;;;;;;10.03;90.49;100040.00;5074789;28;20051;-59
2021/10/21 08:40:11;;;;;;;6.75;1.92;;;;;;;10.08;90.16;100043.25;5073632;28;20564;-58
2021/10/21 08:42:37;;;;;;;14.63;2.40;;;;;;;10.10;90.75;100029.00;5073366;28;20032;-57
2021/10/21 08:45:03;;;;;;;8.25;1.70;;;;;;;10.14;90.76;100040.22;5074629;28;20035;-56
2021/10/21 08:47:29;;;;;;;11.10;1.88;;;;;;;10.23;91.14;100046.78;5074056;28;20021;-59
2021/10/21 08:49:56;;;;;;;9.35;2.05;;;;;;;10.37;89.86;100054.00;5074092;28;20032;-56
2021/10/21 08:52:23;;;;;;;7.07;1.75;;;;;;;10.50;89.33;100062.97;5074301;28;20024;-56
2021/10/21 08:54:48;;;;;;;13.00;1.92;;;;;;;10.65;87.75;100066.50;5074018;28;20020;-58
2021/10/21 08:57:14;;;;;;;9.65;1.67;;;;;;;10.64;86.70;100078.06;5072843;28;20036;-53
2021/10/21 08:59:41;;;;;;;13.10;2.10;;;;;;;10.56;87.21;100082.91;5055981;28;20089;-58
2021/10/21 09:04:52;;;;;;;12.95;2.15;;;;;;;10.40;88.81;100099.66;5074278;28;20029;-65
2021/10/21 09:10:09;;;;;;;10.02;2.10;;;;;;;10.27;89.03;100099.47;5073621;28;20075;-64
2021/10/21 09:12:43;;;;;;;10.35;2.25;;;;;;;10.32;89.16;100109.81;5073910;28;20032;-58
2021/10/21 09:15:12;;;;;;;9.90;1.88;;;;;;;10.36;88.30;100121.97;5073769;28;20025;-58
2021/10/21 09:17:38;;;;;;;13.18;2.53;;;;;;;10.52;88.61;100129.88;5073429;28;20032;-57
2021/10/21 09:20:24;;;;;;;10.23;1.85;;;;;;;10.55;88.12;100120.91;5073409;28;20024;-58
2021/10/21 09:22:58;;;;;;;10.90;1.80;;;;;;;10.51;87.44;100132.63;5073446;28;20499;-59
2021/10/21 09:25:27;;;;;;;14.57;2.50;;;;;;;10.60;87.60;100137.41;5073351;28;20037;-59
2021/10/21 09:27:52;;;;;;;11.80;2.20;;;;;;;10.67;87.87;100138.78;5073030;28;20112;-58
2021/10/21 09:30:27;;;;;;;11.63;1.70;;;;;;;10.72;86.55;100139.38;5073053;28;20131;-58
2021/10/21 09:32:53;;;;;;;9.93;1.90;;;;;;;10.74;86.91;100157.81;5073558;28;20103;-60
2021/10/21 09:35:21;;;;;;;10.45;2.20;;;;;;;10.74;88.10;100169.28;5072333;28;20480;-58
2021/10/21 09:37:48;;;;;;;8.60;1.80;;;;;;;10.88;86.61;100163.19;5068576;28;20028;-59
2021/10/21 09:40:16;;;;;;;9.52;1.88;;;;;;;11.11;85.45;100166.28;5070811;28;20124;-58
2021/10/21 09:42:44;;;;;;;8.73;1.70;;;;;;;11.03;85.08;100171.19;5072595;28;20020;-56
2021/10/21 09:45:20;;;;;;;8.13;1.92;;;;;;;10.84;85.18;100174.88;5087951;28;20108;-54
2021/10/21 09:47:50;;;;;;;9.75;1.67;;;;;;;10.73;83.62;100180.78;5072648;28;20024;-58
2021/10/21 09:50:23;;;;;;;8.70;1.85;;;;;;;10.61;85.52;100192.94;5073251;28;20040;-62
2021/10/21 09:53:18;;;;;;;6.18;1.63;;;;;;;10.48;87.10;100205.13;5072714;28;20086;-56
2021/10/21 09:55:53;;;;;;;10.13;1.73;;;;;;;10.53;88.09;100218.97;5053030;28;20075;-59
2021/10/21 09:58:51;;;;;;;9.18;2.10;;;;;;;10.92;89.33;100204.47;5070905;28;20032;-59
2021/10/21 10:01:17;;;;;;;9.80;2.25;;;;;;;11.09;83.43;100184.94;5067960;28;20040;-57
2021/10/21 10:03:44;;;;;;;8.25;2.20;;;;;;;11.44;83.93;100210.34;5072962;28;20042;-58
2021/10/21 10:06:17;;;;;;;8.40;2.25;;;;;;;13.01;77.27;100202.47;5073278;28;20025;-59
2021/10/21 10:08:44;;;;;;;11.27;1.85;;;;;;;13.66;71.36;100208.00;5072082;28;20388;-59
2021/10/21 10:11:19;;;;;;;6.32;1.80;;;;;;;14.22;69.36;100199.72;5082515;28;20070;-59
2021/10/21 10:13:46;;;;;;;12.18;2.05;;;;;;;13.25;68.90;100201.84;5080162;28;20028;-59
2021/10/21 10:16:12;;;;;;;7.53;1.70;;;;;;;12.66;72.26;100213.59;5072973;28;20022;-59
2021/10/21 10:18:42;;;;;;;6.65;1.50;;;;;;;12.49;73.92;100219.13;5072502;28;20432;-59
2021/10/21 10:21:12;;;;;;;9.48;1.90;;;;;;;13.03;72.81;100208.56;5072375;28;20036;-61
2021/10/21 10:24:03;;;;;;;7.38;1.40;;;;;;;13.16;71.48;100215.72;5072718;28;20024;-58
2021/10/21 10:26:48;;;;;;;8.73;1.70;;;;;;;12.77;74.45;100223.53;5072741;28;20032;-59
2021/10/21 10:29:18;;;;;;;13.25;1.77;;;;;;;12.51;75.77;100233.16;5070900;28;20044;-61
2021/10/21 10:31:45;;;;;;;9.10;1.75;;;;;;;12.30;77.48;100265.38;5061355;28;20433;-57
2021/10/21 10:34:33;;;;;;;11.52;1.65;;;;;;;11.13;82.74;100295.09;5072587;28;20029;-59
2021/10/21 10:37:27;;;;;;;5.15;1.48;;;;;;;10.38;86.90;100312.44;5072346;28;20025;-57
2021/10/21 10:39:57;;;;;;;12.13;1.80;;;;;;;9.83;88.74;100336.31;5060997;28;20048;-57
2021/10/21 10:42:28;;;;;;;11.05;1.63;;;;;;;9.54;90.85;100343.03;5072206;28;20028;-56
2021/10/21 10:44:53;;;;;;;14.90;2.13;;;;;;;9.38;91.67;100363.22;5072009;28;20036;-58
2021/10/21 10:47:44;;;;;;;6.97;1.38;;;;;;;9.21;90.59;100370.13;5073632;28;20032;-57
2021/10/21 10:50:22;;;;;;;9.43;1.33;;;;;;;9.11;89.03;100382.91;5076452;28;20063;-57
2021/10/21 10:52:49;;;;;;;7.50;1.15;;;;;;;9.07;87.64;100404.28;5056478;28;20524;-58
2021/10/21 10:55:27;;;;;;;6.25;1.00;;;;;;;8.98;88.87;100408.19;5063183;28;20025;-57
2021/10/21 10:57:54;;;;;;;5.07;0.95;;;;;;;8.91;89.16;100407.56;5076438;28;20032;-59
2021/10/21 11:00:36;;;;;;;4.95;1.02;;;;;;;8.92;91.00;100424.28;5076189;28;20048;-58
2021/10/21 11:03:02;;;;;;;;;;;;;;;8.88;89.04;100428.84;5076804;28;20123;-57
2021/10/21 11:05:48;;;;;;;7.15;1.20;;;;;;;8.93;90.04;100441.84;5076208;28;20503;-60
2021/10/21 11:08:15;;;;;;;10.63;1.40;;;;;;;8.97;90.08;100446.91;5076241;28;20492;-58
2021/10/21 11:10:43;;;;;;;7.32;1.40;;;;;;;9.06;86.58;100443.00;5075304;28;20021;-59
2021/10/21 11:13:42;;;;;;;6.65;1.50;;;;;;;9.13;84.27;100454.16;5077945;28;20032;-54
2021/10/21 11:16:44;;;;;;;5.85;1.13;;;;;;;9.13;84.78;100454.16;5013599;28;20030;-65
2021/10/21 11:19:36;;;;;;;6.25;1.05;;;;;;;9.25;86.63;100453.59;5013973;28;20513;-56
2021/10/21 11:22:02;;;;;;;4.57;1.10;;;;;;;9.36;85.58;100463.69;5010813;28;20058;-51
2021/10/21 11:24:46;;;;;;;7.10;1.50;;;;;;;9.53;86.07;100473.50;5012525;28;20033;-58
2021/10/21 11:27:13;;;;;;;5.00;1.25;;;;;;;9.68;83.84;100474.56;5013741;28;20036;-58
2021/10/21 11:29:38;;;;;;;6.78;1.27;;;;;;;9.89;82.47;100479.75;5012789;28;20046;-58
2021/10/21 11:32:05;;;;;;;5.72;1.30;;;;;;;9.99;82.79;100478.38;5013920;28;20431;-58
2021/10/21 11:34:31;;;;;;;6.07;1.60;;;;;;;10.13;83.12;100490.97;5013966;28;20118;-65
2021/10/21 11:36:56;;;;;;;5.43;1.30;;;;;;;10.20;79.11;100486.22;5013968;28;20455;-59